Terminal Aerodrome Forecast
Issued by NWS

Home | Current Version | Previous Version | Text Only | Print | Product List | Glossary On
Versions: 1 2 3 4 5 6 7 8 9 10 11 12 13 14
000
FTUS43 KFGF 230500
TAFTVF
TAF
KTVF 230522Z 2306/2406 17011KT 5SM BR OVC008
      TEMPO 2308/2312 2SM BR BKN004
     FM231700 26010KT P6SM BKN090
     FM232200 32020G27KT 4SM -SN BKN015
      AMD LTD TO CLD VIS AND WIND=

USA.gov is the U.S. government's official web portal to all federal, state and local government web resources and services.